sensor_id;sensor_type;location;lat;lon;timestamp;temperature;humidity
15298;DHT22;7750;48.796;9.026;2023-07-29T00:00:09;21.20;84.50
15298;DHT22;7750;48.796;9.026;2023-07-29T00:05:11;21.20;84.50
15298;DHT22;7750;48.796;9.026;2023-07-29T00:10:11;21.20;84.70
15298;DHT22;7750;48.796;9.026;2023-07-29T00:15:12;21.20;84.80
15298;DHT22;7750;48.796;9.026;2023-07-29T00:20:13;21.20;84.80
15298;DHT22;7750;48.796;9.026;2023-07-29T00:25:13;21.30;85.00
15298;DHT22;7750;48.796;9.026;2023-07-29T00:30:14;21.30;84.90
15298;DHT22;7750;48.796;9.026;2023-07-29T00:35:15;21.30;85.10
15298;DHT22;7750;48.796;9.026;2023-07-29T00:40:19;21.30;85.00
15298;DHT22;7750;48.796;9.026;2023-07-29T00:45:20;21.30;85.10
15298;DHT22;7750;48.796;9.026;2023-07-29T00:50:21;21.30;85.10
15298;DHT22;7750;48.796;9.026;2023-07-29T00:55:22;21.30;85.20
15298;DHT22;7750;48.796;9.026;2023-07-29T01:00:23;21.30;85.20
15298;DHT22;7750;48.796;9.026;2023-07-29T01:05:32;21.20;85.10
15298;DHT22;7750;48.796;9.026;2023-07-29T01:10:58;21.20;85.20
15298;DHT22;7750;48.796;9.026;2023-07-29T01:16:07;21.30;85.60
15298;DHT22;7750;48.796;9.026;2023-07-29T01:21:09;21.30;85.50
15298;DHT22;7750;48.796;9.026;2023-07-29T01:26:11;21.30;85.40
15298;DHT22;7750;48.796;9.026;2023-07-29T01:31:32;21.30;85.30
15298;DHT22;7750;48.796;9.026;2023-07-29T01:36:34;21.30;85.30
15298;DHT22;7750;48.796;9.026;2023-07-29T01:41:40;21.30;85.30
15298;DHT22;7750;48.796;9.026;2023-07-29T01:46:41;21.30;85.40
15298;DHT22;7750;48.796;9.026;2023-07-29T01:51:44;21.30;85.40
15298;DHT22;7750;48.796;9.026;2023-07-29T01:56:44;21.30;85.40
15298;DHT22;7750;48.796;9.026;2023-07-29T02:01:45;21.30;85.20
15298;DHT22;7750;48.796;9.026;2023-07-29T02:06:46;21.30;85.10
15298;DHT22;7750;48.796;9.026;2023-07-29T02:11:47;21.30;85.00
15298;DHT22;7750;48.796;9.026;2023-07-29T02:16:48;21.30;85.00
15298;DHT22;7750;48.796;9.026;2023-07-29T02:21:48;21.30;84.90
15298;DHT22;7750;48.796;9.026;2023-07-29T02:26:49;21.30;84.70
15298;DHT22;7750;48.796;9.026;2023-07-29T02:31:49;21.20;85.20
15298;DHT22;7750;48.796;9.026;2023-07-29T02:36:50;21.20;84.60
15298;DHT22;7750;48.796;9.026;2023-07-29T02:41:51;21.20;84.60
15298;DHT22;7750;48.796;9.026;2023-07-29T02:46:51;21.10;84.80
15298;DHT22;7750;48.796;9.026;2023-07-29T02:51:53;21.10;84.90
15298;DHT22;7750;48.796;9.026;2023-07-29T02:56:53;21.10;85.20
15298;DHT22;7750;48.796;9.026;2023-07-29T03:01:54;21.10;85.30
15298;DHT22;7750;48.796;9.026;2023-07-29T03:06:55;21.00;85.30
15298;DHT22;7750;48.796;9.026;2023-07-29T03:11:55;21.00;85.30
15298;DHT22;7750;48.796;9.026;2023-07-29T03:16:57;21.10;85.40
15298;DHT22;7750;48.796;9.026;2023-07-29T03:21:58;21.00;85.40
15298;DHT22;7750;48.796;9.026;2023-07-29T03:26:59;21.00;85.50
15298;DHT22;7750;48.796;9.026;2023-07-29T03:31:59;21.00;85.50
15298;DHT22;7750;48.796;9.026;2023-07-29T03:37:00;21.00;85.60
15298;DHT22;7750;48.796;9.026;2023-07-29T03:42:01;21.00;85.60
15298;DHT22;7750;48.796;9.026;2023-07-29T03:47:02;21.00;86.00
15298;DHT22;7750;48.796;9.026;2023-07-29T03:52:03;21.00;86.20
15298;DHT22;7750;48.796;9.026;2023-07-29T03:57:03;21.00;86.40
15298;DHT22;7750;48.796;9.026;2023-07-29T04:02:04;21.00;86.50
15298;DHT22;7750;48.796;9.026;2023-07-29T04:07:06;21.00;86.60
15298;DHT22;7750;48.796;9.026;2023-07-29T04:12:06;21.00;86.80
15298;DHT22;7750;48.796;9.026;2023-07-29T04:17:07;21.00;86.80
15298;DHT22;7750;48.796;9.026;2023-07-29T04:22:08;21.00;87.00
15298;DHT22;7750;48.796;9.026;2023-07-29T04:27:09;21.00;87.20
15298;DHT22;7750;48.796;9.026;2023-07-29T04:32:09;21.00;87.30
15298;DHT22;7750;48.796;9.026;2023-07-29T04:37:10;21.00;87.50
15298;DHT22;7750;48.796;9.026;2023-07-29T04:42:11;21.00;87.70
15298;DHT22;7750;48.796;9.026;2023-07-29T04:47:11;21.00;87.80
15298;DHT22;7750;48.796;9.026;2023-07-29T04:52:12;21.00;88.10
15298;DHT22;7750;48.796;9.026;2023-07-29T04:57:13;20.90;88.10
15298;DHT22;7750;48.796;9.026;2023-07-29T05:02:13;20.90;88.20
15298;DHT22;7750;48.796;9.026;2023-07-29T05:07:16;20.90;88.20
15298;DHT22;7750;48.796;9.026;2023-07-29T05:12:16;21.00;88.30
15298;DHT22;7750;48.796;9.026;2023-07-29T05:17:17;21.00;88.50
15298;DHT22;7750;48.796;9.026;2023-07-29T05:22:18;21.00;88.70
15298;DHT22;7750;48.796;9.026;2023-07-29T05:27:18;21.00;88.80
15298;DHT22;7750;48.796;9.026;2023-07-29T05:32:19;21.00;89.00
15298;DHT22;7750;48.796;9.026;2023-07-29T05:37:19;21.00;89.30
15298;DHT22;7750;48.796;9.026;2023-07-29T05:42:20;21.10;89.60
15298;DHT22;7750;48.796;9.026;2023-07-29T05:47:21;21.10;89.60
15298;DHT22;7750;48.796;9.026;2023-07-29T05:52:21;21.20;89.80
15298;DHT22;7750;48.796;9.026;2023-07-29T05:57:22;21.20;90.00
15298;DHT22;7750;48.796;9.026;2023-07-29T06:02:23;21.30;90.00
15298;DHT22;7750;48.796;9.026;2023-07-29T06:07:23;21.40;90.00
15298;DHT22;7750;48.796;9.026;2023-07-29T06:12:24;21.50;90.00
15298;DHT22;7750;48.796;9.026;2023-07-29T06:17:25;21.50;89.90
15298;DHT22;7750;48.796;9.026;2023-07-29T06:22:25;21.60;90.10
15298;DHT22;7750;48.796;9.026;2023-07-29T06:27:26;21.70;90.10
15298;DHT22;7750;48.796;9.026;2023-07-29T06:32:27;21.70;90.00
15298;DHT22;7750;48.796;9.026;2023-07-29T06:37:27;21.80;90.00
15298;DHT22;7750;48.796;9.026;2023-07-29T06:42:28;21.80;90.00
15298;DHT22;7750;48.796;9.026;2023-07-29T06:47:28;21.80;90.00
15298;DHT22;7750;48.796;9.026;2023-07-29T06:52:29;21.80;89.80
15298;DHT22;7750;48.796;9.026;2023-07-29T06:57:30;21.90;89.70
15298;DHT22;7750;48.796;9.026;2023-07-29T07:02:30;21.90;89.50
15298;DHT22;7750;48.796;9.026;2023-07-29T07:07:31;21.90;90.00
15298;DHT22;7750;48.796;9.026;2023-07-29T07:12:32;21.90;90.00
15298;DHT22;7750;48.796;9.026;2023-07-29T07:17:32;21.90;90.00
15298;DHT22;7750;48.796;9.026;2023-07-29T07:22:33;21.90;90.00
15298;DHT22;7750;48.796;9.026;2023-07-29T07:27:34;21.90;90.10
15298;DHT22;7750;48.796;9.026;2023-07-29T07:32:35;21.90;90.30
15298;DHT22;7750;48.796;9.026;2023-07-29T07:37:38;22.00;90.50
15298;DHT22;7750;48.796;9.026;2023-07-29T07:42:39;22.00;90.50
15298;DHT22;7750;48.796;9.026;2023-07-29T07:47:39;22.10;90.50
15298;DHT22;7750;48.796;9.026;2023-07-29T07:52:40;22.20;90.30
15298;DHT22;7750;48.796;9.026;2023-07-29T07:57:41;22.30;90.30
15298;DHT22;7750;48.796;9.026;2023-07-29T08:02:43;22.40;90.60
15298;DHT22;7750;48.796;9.026;2023-07-29T08:07:44;22.70;91.10
15298;DHT22;7750;48.796;9.026;2023-07-29T08:12:44;23.00;89.10
15298;DHT22;7750;48.796;9.026;2023-07-29T08:17:51;23.20;89.20
15298;DHT22;7750;48.796;9.026;2023-07-29T08:29:20;23.40;86.50
15298;DHT22;7750;48.796;9.026;2023-07-29T08:34:33;23.40;86.90
15298;DHT22;7750;48.796;9.026;2023-07-29T08:39:34;23.40;86.70
15298;DHT22;7750;48.796;9.026;2023-07-29T08:44:44;23.50;87.10
15298;DHT22;7750;48.796;9.026;2023-07-29T08:49:46;23.70;86.50
15298;DHT22;7750;48.796;9.026;2023-07-29T08:54:47;23.90;86.50
15298;DHT22;7750;48.796;9.026;2023-07-29T08:59:51;24.10;86.40
15298;DHT22;7750;48.796;9.026;2023-07-29T09:04:52;24.30;83.70
15298;DHT22;7750;48.796;9.026;2023-07-29T09:09:55;24.40;83.70
15298;DHT22;7750;48.796;9.026;2023-07-29T09:14:56;24.40;82.60
15298;DHT22;7750;48.796;9.026;2023-07-29T09:19:57;24.50;83.20
15298;DHT22;7750;48.796;9.026;2023-07-29T09:29:58;24.80;82.30
15298;DHT22;7750;48.796;9.026;2023-07-29T09:35:02;25.00;82.20
15298;DHT22;7750;48.796;9.026;2023-07-29T09:40:03;25.20;81.20
15298;DHT22;7750;48.796;9.026;2023-07-29T09:45:04;25.20;78.70
15298;DHT22;7750;48.796;9.026;2023-07-29T09:50:05;25.20;77.90
15298;DHT22;7750;48.796;9.026;2023-07-29T09:55:06;25.30;76.90
15298;DHT22;7750;48.796;9.026;2023-07-29T10:00:10;25.20;77.10
15298;DHT22;7750;48.796;9.026;2023-07-29T10:05:11;25.30;76.40
15298;DHT22;7750;48.796;9.026;2023-07-29T10:10:13;25.40;75.90
15298;DHT22;7750;48.796;9.026;2023-07-29T10:15:14;25.50;74.70
15298;DHT22;7750;48.796;9.026;2023-07-29T10:20:14;25.60;75.10
15298;DHT22;7750;48.796;9.026;2023-07-29T10:25:21;25.60;76.80
15298;DHT22;7750;48.796;9.026;2023-07-29T10:30:24;25.60;76.30
15298;DHT22;7750;48.796;9.026;2023-07-29T10:35:25;25.50;76.50
15298;DHT22;7750;48.796;9.026;2023-07-29T10:40:26;25.50;76.90
15298;DHT22;7750;48.796;9.026;2023-07-29T10:45:40;25.40;77.00
15298;DHT22;7750;48.796;9.026;2023-07-29T10:50:41;25.40;77.00
15298;DHT22;7750;48.796;9.026;2023-07-29T10:55:43;25.40;77.10
15298;DHT22;7750;48.796;9.026;2023-07-29T11:00:45;25.50;76.00
15298;DHT22;7750;48.796;9.026;2023-07-29T11:05:47;25.70;74.60
15298;DHT22;7750;48.796;9.026;2023-07-29T11:11:04;25.70;75.10
15298;DHT22;7750;48.796;9.026;2023-07-29T11:16:06;25.90;73.50
15298;DHT22;7750;48.796;9.026;2023-07-29T11:21:06;26.00;73.30
15298;DHT22;7750;48.796;9.026;2023-07-29T11:26:07;26.10;72.60
15298;DHT22;7750;48.796;9.026;2023-07-29T11:31:08;26.10;72.00
15298;DHT22;7750;48.796;9.026;2023-07-29T11:36:17;26.10;72.20
15298;DHT22;7750;48.796;9.026;2023-07-29T11:41:20;26.20;70.90
15298;DHT22;7750;48.796;9.026;2023-07-29T11:46:22;26.30;72.20
15298;DHT22;7750;48.796;9.026;2023-07-29T11:51:23;26.40;72.00
15298;DHT22;7750;48.796;9.026;2023-07-29T11:56:24;26.50;71.80
15298;DHT22;7750;48.796;9.026;2023-07-29T12:01:24;26.60;70.70
15298;DHT22;7750;48.796;9.026;2023-07-29T12:06:25;27.10;69.70
15298;DHT22;7750;48.796;9.026;2023-07-29T12:11:26;27.20;69.50
15298;DHT22;7750;48.796;9.026;2023-07-29T12:16:27;27.50;69.20
15298;DHT22;7750;48.796;9.026;2023-07-29T12:21:35;27.80;64.70
15298;DHT22;7750;48.796;9.026;2023-07-29T12:26:36;28.10;63.60
15298;DHT22;7750;48.796;9.026;2023-07-29T12:31:37;28.30;63.00
15298;DHT22;7750;48.796;9.026;2023-07-29T12:36:49;28.50;59.20
15298;DHT22;7750;48.796;9.026;2023-07-29T12:41:51;28.60;59.50
15298;DHT22;7750;48.796;9.026;2023-07-29T12:46:52;28.70;59.10
15298;DHT22;7750;48.796;9.026;2023-07-29T12:51:52;28.80;59.60
15298;DHT22;7750;48.796;9.026;2023-07-29T12:56:53;29.10;58.40
15298;DHT22;7750;48.796;9.026;2023-07-29T13:01:54;29.40;57.50
15298;DHT22;7750;48.796;9.026;2023-07-29T13:06:57;29.50;57.40
15298;DHT22;7750;48.796;9.026;2023-07-29T13:11:59;29.60;56.00
15298;DHT22;7750;48.796;9.026;2023-07-29T13:17:02;29.70;56.70
15298;DHT22;7750;48.796;9.026;2023-07-29T13:22:03;29.70;56.60
15298;DHT22;7750;48.796;9.026;2023-07-29T13:27:07;29.80;55.50
15298;DHT22;7750;48.796;9.026;2023-07-29T13:32:17;30.10;53.40
15298;DHT22;7750;48.796;9.026;2023-07-29T13:37:21;29.90;53.30
15298;DHT22;7750;48.796;9.026;2023-07-29T13:42:22;29.70;53.80
15298;DHT22;7750;48.796;9.026;2023-07-29T13:47:22;29.50;54.00
15298;DHT22;7750;48.796;9.026;2023-07-29T13:52:29;29.30;54.00
15298;DHT22;7750;48.796;9.026;2023-07-29T13:57:30;29.20;55.10
15298;DHT22;7750;48.796;9.026;2023-07-29T14:02:36;29.10;54.90
15298;DHT22;7750;48.796;9.026;2023-07-29T14:07:37;29.00;54.50
15298;DHT22;7750;48.796;9.026;2023-07-29T14:12:37;28.90;55.60
15298;DHT22;7750;48.796;9.026;2023-07-29T14:17:44;29.00;55.20
15298;DHT22;7750;48.796;9.026;2023-07-29T14:22:47;29.00;54.90
15298;DHT22;7750;48.796;9.026;2023-07-29T14:28:19;29.10;55.50
15298;DHT22;7750;48.796;9.026;2023-07-29T14:33:20;29.10;55.00
15298;DHT22;7750;48.796;9.026;2023-07-29T14:38:20;29.00;55.20
15298;DHT22;7750;48.796;9.026;2023-07-29T14:43:21;28.80;55.40
15298;DHT22;7750;48.796;9.026;2023-07-29T14:48:23;28.70;55.40
15298;DHT22;7750;48.796;9.026;2023-07-29T14:53:26;28.60;55.90
15298;DHT22;7750;48.796;9.026;2023-07-29T14:58:27;28.50;56.00
15298;DHT22;7750;48.796;9.026;2023-07-29T15:03:28;28.40;56.00
15298;DHT22;7750;48.796;9.026;2023-07-29T15:08:38;28.30;56.40
15298;DHT22;7750;48.796;9.026;2023-07-29T15:13:38;28.30;56.70
15298;DHT22;7750;48.796;9.026;2023-07-29T15:18:48;28.30;57.20
15298;DHT22;7750;48.796;9.026;2023-07-29T15:23:57;28.30;57.30
15298;DHT22;7750;48.796;9.026;2023-07-29T15:29:00;28.40;56.80
15298;DHT22;7750;48.796;9.026;2023-07-29T15:34:36;28.50;56.60
15298;DHT22;7750;48.796;9.026;2023-07-29T15:39:46;28.40;55.70
15298;DHT22;7750;48.796;9.026;2023-07-29T15:44:47;28.30;56.20
15298;DHT22;7750;48.796;9.026;2023-07-29T15:49:47;28.20;56.60
15298;DHT22;7750;48.796;9.026;2023-07-29T15:54:49;28.20;56.80
15298;DHT22;7750;48.796;9.026;2023-07-29T15:59:51;28.10;56.60
15298;DHT22;7750;48.796;9.026;2023-07-29T16:04:53;28.10;56.70
15298;DHT22;7750;48.796;9.026;2023-07-29T16:09:56;28.10;56.40
15298;DHT22;7750;48.796;9.026;2023-07-29T16:15:00;28.20;56.80
15298;DHT22;7750;48.796;9.026;2023-07-29T16:20:05;28.30;57.20
15298;DHT22;7750;48.796;9.026;2023-07-29T16:25:09;28.40;55.30
15298;DHT22;7750;48.796;9.026;2023-07-29T16:30:21;28.50;54.70
15298;DHT22;7750;48.796;9.026;2023-07-29T16:35:42;28.50;53.70
15298;DHT22;7750;48.796;9.026;2023-07-29T16:40:55;28.40;53.20
15298;DHT22;7750;48.796;9.026;2023-07-29T16:46:05;28.30;53.90
15298;DHT22;7750;48.796;9.026;2023-07-29T16:51:11;28.20;54.10
15298;DHT22;7750;48.796;9.026;2023-07-29T16:56:15;28.20;54.30
15298;DHT22;7750;48.796;9.026;2023-07-29T17:01:15;28.10;54.20
15298;DHT22;7750;48.796;9.026;2023-07-29T17:06:24;28.10;54.30
15298;DHT22;7750;48.796;9.026;2023-07-29T17:11:25;28.00;54.70
15298;DHT22;7750;48.796;9.026;2023-07-29T17:21:57;27.80;54.70
15298;DHT22;7750;48.796;9.026;2023-07-29T17:39:08;27.40;56.10
15298;DHT22;7750;48.796;9.026;2023-07-29T17:44:08;27.20;57.20
15298;DHT22;7750;48.796;9.026;2023-07-29T18:00:40;26.50;59.40
15298;DHT22;7750;48.796;9.026;2023-07-29T18:05:47;26.30;59.70
15298;DHT22;7750;48.796;9.026;2023-07-29T18:11:12;26.10;60.40
15298;DHT22;7750;48.796;9.026;2023-07-29T18:21:25;26.00;61.70
15298;DHT22;7750;48.796;9.026;2023-07-29T18:26:28;26.00;61.70
15298;DHT22;7750;48.796;9.026;2023-07-29T18:31:38;25.90;61.70
15298;DHT22;7750;48.796;9.026;2023-07-29T18:36:44;25.70;62.60
15298;DHT22;7750;48.796;9.026;2023-07-29T18:41:45;25.60;63.70
15298;DHT22;7750;48.796;9.026;2023-07-29T18:46:55;25.40;63.90
15298;DHT22;7750;48.796;9.026;2023-07-29T18:52:05;25.20;65.40
15298;DHT22;7750;48.796;9.026;2023-07-29T18:57:06;25.10;65.40
15298;DHT22;7750;48.796;9.026;2023-07-29T19:02:07;25.00;65.30
15298;DHT22;7750;48.796;9.026;2023-07-29T19:07:08;24.90;65.80
15298;DHT22;7750;48.796;9.026;2023-07-29T19:12:08;24.80;66.30
15298;DHT22;7750;48.796;9.026;2023-07-29T19:17:12;24.80;66.50
15298;DHT22;7750;48.796;9.026;2023-07-29T19:22:15;24.70;66.70
15298;DHT22;7750;48.796;9.026;2023-07-29T19:27:16;24.70;67.00
15298;DHT22;7750;48.796;9.026;2023-07-29T19:32:17;24.70;67.70
15298;DHT22;7750;48.796;9.026;2023-07-29T19:37:18;24.60;67.70
15298;DHT22;7750;48.796;9.026;2023-07-29T19:42:19;24.50;68.20
15298;DHT22;7750;48.796;9.026;2023-07-29T19:47:19;24.40;68.60
15298;DHT22;7750;48.796;9.026;2023-07-29T19:52:20;24.40;69.40
15298;DHT22;7750;48.796;9.026;2023-07-29T19:57:21;24.30;69.70
15298;DHT22;7750;48.796;9.026;2023-07-29T20:02:22;24.20;70.50
15298;DHT22;7750;48.796;9.026;2023-07-29T20:07:23;24.20;71.20
15298;DHT22;7750;48.796;9.026;2023-07-29T20:12:24;24.10;71.50
15298;DHT22;7750;48.796;9.026;2023-07-29T20:17:24;24.00;71.60
15298;DHT22;7750;48.796;9.026;2023-07-29T20:22:25;24.00;72.00
15298;DHT22;7750;48.796;9.026;2023-07-29T20:27:25;23.90;72.20
15298;DHT22;7750;48.796;9.026;2023-07-29T20:32:26;23.90;72.70
15298;DHT22;7750;48.796;9.026;2023-07-29T20:37:27;23.80;73.20
15298;DHT22;7750;48.796;9.026;2023-07-29T20:42:28;23.80;72.90
15298;DHT22;7750;48.796;9.026;2023-07-29T20:47:29;23.70;73.30
15298;DHT22;7750;48.796;9.026;2023-07-29T20:52:29;23.70;73.80
15298;DHT22;7750;48.796;9.026;2023-07-29T20:57:30;23.60;73.90
15298;DHT22;7750;48.796;9.026;2023-07-29T21:02:30;23.60;74.10
15298;DHT22;7750;48.796;9.026;2023-07-29T21:07:31;23.60;74.20
15298;DHT22;7750;48.796;9.026;2023-07-29T21:12:32;23.50;74.00
15298;DHT22;7750;48.796;9.026;2023-07-29T21:17:32;23.50;74.20
15298;DHT22;7750;48.796;9.026;2023-07-29T21:22:33;23.50;74.40
15298;DHT22;7750;48.796;9.026;2023-07-29T21:27:33;23.50;74.30
15298;DHT22;7750;48.796;9.026;2023-07-29T21:32:34;23.50;74.70
15298;DHT22;7750;48.796;9.026;2023-07-29T21:37:38;23.50;74.40
15298;DHT22;7750;48.796;9.026;2023-07-29T21:42:38;23.50;74.60
15298;DHT22;7750;48.796;9.026;2023-07-29T21:47:41;23.50;74.70
15298;DHT22;7750;48.796;9.026;2023-07-29T21:52:42;23.50;74.60
15298;DHT22;7750;48.796;9.026;2023-07-29T21:57:42;23.50;75.00
15298;DHT22;7750;48.796;9.026;2023-07-29T22:02:43;23.50;75.20
15298;DHT22;7750;48.796;9.026;2023-07-29T22:07:43;23.40;75.60
15298;DHT22;7750;48.796;9.026;2023-07-29T22:12:44;23.40;75.40
15298;DHT22;7750;48.796;9.026;2023-07-29T22:17:46;23.40;75.70
15298;DHT22;7750;48.796;9.026;2023-07-29T22:22:54;23.40;75.90
15298;DHT22;7750;48.796;9.026;2023-07-29T22:28:33;23.40;76.40
15298;DHT22;7750;48.796;9.026;2023-07-29T22:50:10;23.20;77.50
15298;DHT22;7750;48.796;9.026;2023-07-29T22:55:11;23.10;78.50
15298;DHT22;7750;48.796;9.026;2023-07-29T23:00:12;23.10;78.90
15298;DHT22;7750;48.796;9.026;2023-07-29T23:05:16;23.00;79.50
15298;DHT22;7750;48.796;9.026;2023-07-29T23:10:20;22.90;80.20
15298;DHT22;7750;48.796;9.026;2023-07-29T23:15:20;22.80;80.90
15298;DHT22;7750;48.796;9.026;2023-07-29T23:20:24;22.70;79.50
15298;DHT22;7750;48.796;9.026;2023-07-29T23:25:24;22.60;78.90
15298;DHT22;7750;48.796;9.026;2023-07-29T23:30:36;22.50;78.50
15298;DHT22;7750;48.796;9.026;2023-07-29T23:36:07;22.40;78.90
15298;DHT22;7750;48.796;9.026;2023-07-29T23:41:08;22.30;78.10
15298;DHT22;7750;48.796;9.026;2023-07-29T23:57:34;22.10;77.90
